sensor_id;sensor_type;location;lat;lon;timestamp;temperature;humidity
19397;DHT22;9834;48.076;11.878;2023-05-10T00:02:00;12.50;99.90
19397;DHT22;9834;48.076;11.878;2023-05-10T00:04:27;12.50;99.90
19397;DHT22;9834;48.076;11.878;2023-05-10T00:06:55;12.50;99.90
19397;DHT22;9834;48.076;11.878;2023-05-10T00:09:24;12.50;99.90
19397;DHT22;9834;48.076;11.878;2023-05-10T00:11:51;12.50;99.90
19397;DHT22;9834;48.076;11.878;2023-05-10T00:14:19;12.40;99.90
19397;DHT22;9834;48.076;11.878;2023-05-10T00:16:46;12.40;99.90
19397;DHT22;9834;48.076;11.878;2023-05-10T00:19:13;12.40;99.90
19397;DHT22;9834;48.076;11.878;2023-05-10T00:21:40;12.40;99.90
19397;DHT22;9834;48.076;11.878;2023-05-10T00:24:08;12.40;99.90
19397;DHT22;9834;48.076;11.878;2023-05-10T00:26:37;12.40;99.90
19397;DHT22;9834;48.076;11.878;2023-05-10T00:29:04;12.40;99.90
19397;DHT22;9834;48.076;11.878;2023-05-10T00:31:31;12.40;99.90
19397;DHT22;9834;48.076;11.878;2023-05-10T00:33:59;12.40;99.90
19397;DHT22;9834;48.076;11.878;2023-05-10T00:36:26;12.40;99.90
19397;DHT22;9834;48.076;11.878;2023-05-10T00:38:54;12.40;99.90
19397;DHT22;9834;48.076;11.878;2023-05-10T00:41:21;12.40;99.90
19397;DHT22;9834;48.076;11.878;2023-05-10T00:43:50;12.30;99.90
19397;DHT22;9834;48.076;11.878;2023-05-10T00:46:18;12.30;99.90
19397;DHT22;9834;48.076;11.878;2023-05-10T00:48:45;12.40;99.90
19397;DHT22;9834;48.076;11.878;2023-05-10T00:51:13;12.30;99.90
19397;DHT22;9834;48.076;11.878;2023-05-10T00:53:41;12.30;99.90
19397;DHT22;9834;48.076;11.878;2023-05-10T00:56:08;12.30;99.90
19397;DHT22;9834;48.076;11.878;2023-05-10T00:58:36;12.30;99.90
19397;DHT22;9834;48.076;11.878;2023-05-10T01:01:05;12.30;99.90
19397;DHT22;9834;48.076;11.878;2023-05-10T01:03:33;12.30;99.90
19397;DHT22;9834;48.076;11.878;2023-05-10T01:06:00;12.30;99.90
19397;DHT22;9834;48.076;11.878;2023-05-10T01:08:28;12.30;99.90
19397;DHT22;9834;48.076;11.878;2023-05-10T01:10:56;12.30;99.90
19397;DHT22;9834;48.076;11.878;2023-05-10T01:13:30;12.30;99.90
19397;DHT22;9834;48.076;11.878;2023-05-10T01:15:59;12.30;99.90
19397;DHT22;9834;48.076;11.878;2023-05-10T01:18:31;12.30;99.90
19397;DHT22;9834;48.076;11.878;2023-05-10T01:21:07;12.30;99.90
19397;DHT22;9834;48.076;11.878;2023-05-10T01:33:18;12.30;99.90
19397;DHT22;9834;48.076;11.878;2023-05-10T01:35:53;12.30;99.90
19397;DHT22;9834;48.076;11.878;2023-05-10T01:38:26;12.30;99.90
19397;DHT22;9834;48.076;11.878;2023-05-10T01:41:07;12.30;99.90
19397;DHT22;9834;48.076;11.878;2023-05-10T01:43:45;12.20;99.90
19397;DHT22;9834;48.076;11.878;2023-05-10T01:46:17;12.30;99.90
19397;DHT22;9834;48.076;11.878;2023-05-10T01:48:52;12.30;99.90
19397;DHT22;9834;48.076;11.878;2023-05-10T01:51:23;12.30;99.90
19397;DHT22;9834;48.076;11.878;2023-05-10T01:53:57;12.20;99.90
19397;DHT22;9834;48.076;11.878;2023-05-10T01:56:26;12.20;99.90
19397;DHT22;9834;48.076;11.878;2023-05-10T01:58:55;12.20;99.90
19397;DHT22;9834;48.076;11.878;2023-05-10T02:01:24;12.20;99.90
19397;DHT22;9834;48.076;11.878;2023-05-10T02:03:55;12.20;99.90
19397;DHT22;9834;48.076;11.878;2023-05-10T02:06:24;12.20;99.90
19397;DHT22;9834;48.076;11.878;2023-05-10T02:08:53;12.20;99.90
19397;DHT22;9834;48.076;11.878;2023-05-10T02:11:21;12.20;99.90
19397;DHT22;9834;48.076;11.878;2023-05-10T02:13:49;12.20;99.90
19397;DHT22;9834;48.076;11.878;2023-05-10T02:16:18;12.20;99.90
19397;DHT22;9834;48.076;11.878;2023-05-10T02:18:53;12.20;99.90
19397;DHT22;9834;48.076;11.878;2023-05-10T02:21:21;12.20;99.90
19397;DHT22;9834;48.076;11.878;2023-05-10T02:23:51;12.20;99.90
19397;DHT22;9834;48.076;11.878;2023-05-10T02:26:21;12.20;99.90
19397;DHT22;9834;48.076;11.878;2023-05-10T02:28:53;12.20;99.90
19397;DHT22;9834;48.076;11.878;2023-05-10T02:31:21;12.20;99.90
19397;DHT22;9834;48.076;11.878;2023-05-10T02:33:49;12.20;99.90
19397;DHT22;9834;48.076;11.878;2023-05-10T02:36:20;12.20;99.90
19397;DHT22;9834;48.076;11.878;2023-05-10T02:38:49;12.10;99.90
19397;DHT22;9834;48.076;11.878;2023-05-10T02:41:20;12.20;99.90
19397;DHT22;9834;48.076;11.878;2023-05-10T02:43:50;12.20;99.90
19397;DHT22;9834;48.076;11.878;2023-05-10T02:46:17;12.20;99.90
19397;DHT22;9834;48.076;11.878;2023-05-10T02:48:45;12.20;99.90
19397;DHT22;9834;48.076;11.878;2023-05-10T02:51:14;12.20;99.90
19397;DHT22;9834;48.076;11.878;2023-05-10T02:53:46;12.20;99.90
19397;DHT22;9834;48.076;11.878;2023-05-10T02:56:17;12.10;99.90
19397;DHT22;9834;48.076;11.878;2023-05-10T02:58:47;12.10;99.90
19397;DHT22;9834;48.076;11.878;2023-05-10T03:01:16;12.10;99.90
19397;DHT22;9834;48.076;11.878;2023-05-10T03:03:44;12.10;99.90
19397;DHT22;9834;48.076;11.878;2023-05-10T03:06:11;12.10;99.90
19397;DHT22;9834;48.076;11.878;2023-05-10T03:08:38;12.10;99.90
19397;DHT22;9834;48.076;11.878;2023-05-10T03:11:21;12.10;99.90
19397;DHT22;9834;48.076;11.878;2023-05-10T03:14:02;12.10;99.90
19397;DHT22;9834;48.076;11.878;2023-05-10T03:16:39;12.10;99.90
19397;DHT22;9834;48.076;11.878;2023-05-10T03:19:14;12.10;99.90
19397;DHT22;9834;48.076;11.878;2023-05-10T03:21:47;12.00;99.90
19397;DHT22;9834;48.076;11.878;2023-05-10T03:24:16;12.00;99.90
19397;DHT22;9834;48.076;11.878;2023-05-10T03:26:49;12.00;99.90
19397;DHT22;9834;48.076;11.878;2023-05-10T03:29:16;12.00;99.90
19397;DHT22;9834;48.076;11.878;2023-05-10T03:31:43;12.00;99.90
19397;DHT22;9834;48.076;11.878;2023-05-10T03:34:11;12.00;99.90
19397;DHT22;9834;48.076;11.878;2023-05-10T03:36:39;12.00;99.90
19397;DHT22;9834;48.076;11.878;2023-05-10T03:39:06;12.00;99.90
19397;DHT22;9834;48.076;11.878;2023-05-10T03:41:34;12.00;99.90
19397;DHT22;9834;48.076;11.878;2023-05-10T03:44:03;12.00;99.90
19397;DHT22;9834;48.076;11.878;2023-05-10T03:46:31;12.00;99.90
19397;DHT22;9834;48.076;11.878;2023-05-10T03:48:58;12.00;99.90
19397;DHT22;9834;48.076;11.878;2023-05-10T03:51:26;12.00;99.90
19397;DHT22;9834;48.076;11.878;2023-05-10T03:53:54;12.00;99.90
19397;DHT22;9834;48.076;11.878;2023-05-10T03:56:24;12.00;99.90
19397;DHT22;9834;48.076;11.878;2023-05-10T03:58:51;12.00;99.90
19397;DHT22;9834;48.076;11.878;2023-05-10T04:01:20;12.00;99.90
19397;DHT22;9834;48.076;11.878;2023-05-10T04:03:47;12.00;99.90
19397;DHT22;9834;48.076;11.878;2023-05-10T04:06:15;12.00;99.90
19397;DHT22;9834;48.076;11.878;2023-05-10T04:08:42;12.00;99.90
19397;DHT22;9834;48.076;11.878;2023-05-10T04:11:11;12.00;99.90
19397;DHT22;9834;48.076;11.878;2023-05-10T04:13:39;12.00;99.90
19397;DHT22;9834;48.076;11.878;2023-05-10T04:16:07;12.10;99.90
19397;DHT22;9834;48.076;11.878;2023-05-10T04:18:36;12.10;99.90
19397;DHT22;9834;48.076;11.878;2023-05-10T04:21:03;12.00;99.90
19397;DHT22;9834;48.076;11.878;2023-05-10T04:23:31;12.10;99.90
19397;DHT22;9834;48.076;11.878;2023-05-10T04:26:01;12.10;99.90
19397;DHT22;9834;48.076;11.878;2023-05-10T04:28:29;12.10;99.90
19397;DHT22;9834;48.076;11.878;2023-05-10T04:31:01;12.10;99.90
19397;DHT22;9834;48.076;11.878;2023-05-10T04:33:28;12.10;99.90
19397;DHT22;9834;48.076;11.878;2023-05-10T04:35:57;12.10;99.90
19397;DHT22;9834;48.076;11.878;2023-05-10T04:38:25;12.10;99.90
19397;DHT22;9834;48.076;11.878;2023-05-10T04:40:52;12.10;99.90
19397;DHT22;9834;48.076;11.878;2023-05-10T04:43:20;12.10;99.90
19397;DHT22;9834;48.076;11.878;2023-05-10T04:45:47;12.10;99.90
19397;DHT22;9834;48.076;11.878;2023-05-10T04:48:16;12.10;99.90
19397;DHT22;9834;48.076;11.878;2023-05-10T04:50:43;12.10;99.90
19397;DHT22;9834;48.076;11.878;2023-05-10T04:53:12;12.10;99.90
19397;DHT22;9834;48.076;11.878;2023-05-10T04:55:39;12.10;99.90
19397;DHT22;9834;48.076;11.878;2023-05-10T04:58:07;12.10;99.90
19397;DHT22;9834;48.076;11.878;2023-05-10T05:00:34;12.20;99.90
19397;DHT22;9834;48.076;11.878;2023-05-10T05:03:02;12.10;99.90
19397;DHT22;9834;48.076;11.878;2023-05-10T05:05:29;12.10;99.90
19397;DHT22;9834;48.076;11.878;2023-05-10T05:07:57;12.10;99.90
19397;DHT22;9834;48.076;11.878;2023-05-10T05:10:26;12.10;99.90
19397;DHT22;9834;48.076;11.878;2023-05-10T05:12:53;12.20;99.90
19397;DHT22;9834;48.076;11.878;2023-05-10T05:15:20;12.20;99.90
19397;DHT22;9834;48.076;11.878;2023-05-10T05:17:48;12.20;99.90
19397;DHT22;9834;48.076;11.878;2023-05-10T05:20:15;12.20;99.90
19397;DHT22;9834;48.076;11.878;2023-05-10T05:22:42;12.20;99.90
19397;DHT22;9834;48.076;11.878;2023-05-10T05:25:10;12.20;99.90
19397;DHT22;9834;48.076;11.878;2023-05-10T05:27:39;12.20;99.90
19397;DHT22;9834;48.076;11.878;2023-05-10T05:30:07;12.20;99.90
19397;DHT22;9834;48.076;11.878;2023-05-10T05:32:35;12.20;99.90
19397;DHT22;9834;48.076;11.878;2023-05-10T05:35:03;12.20;99.90
19397;DHT22;9834;48.076;11.878;2023-05-10T05:37:30;12.10;99.90
19397;DHT22;9834;48.076;11.878;2023-05-10T05:39:58;12.00;99.90
19397;DHT22;9834;48.076;11.878;2023-05-10T05:42:27;12.00;99.90
19397;DHT22;9834;48.076;11.878;2023-05-10T05:44:56;12.00;99.90
19397;DHT22;9834;48.076;11.878;2023-05-10T05:47:23;11.90;99.90
19397;DHT22;9834;48.076;11.878;2023-05-10T05:49:51;11.90;99.90
19397;DHT22;9834;48.076;11.878;2023-05-10T05:52:18;11.80;99.90
19397;DHT22;9834;48.076;11.878;2023-05-10T05:54:47;11.80;99.90
19397;DHT22;9834;48.076;11.878;2023-05-10T05:57:14;11.80;99.90
19397;DHT22;9834;48.076;11.878;2023-05-10T05:59:41;11.80;99.90
19397;DHT22;9834;48.076;11.878;2023-05-10T06:02:10;11.80;99.90
19397;DHT22;9834;48.076;11.878;2023-05-10T06:04:38;11.80;99.90
19397;DHT22;9834;48.076;11.878;2023-05-10T06:07:05;11.90;99.90
19397;DHT22;9834;48.076;11.878;2023-05-10T06:09:33;11.80;99.90
19397;DHT22;9834;48.076;11.878;2023-05-10T06:12:00;11.70;99.90
19397;DHT22;9834;48.076;11.878;2023-05-10T06:14:28;11.70;99.90
19397;DHT22;9834;48.076;11.878;2023-05-10T06:16:55;11.50;99.90
19397;DHT22;9834;48.076;11.878;2023-05-10T06:19:24;11.40;99.90
19397;DHT22;9834;48.076;11.878;2023-05-10T06:21:52;11.40;99.90
19397;DHT22;9834;48.076;11.878;2023-05-10T06:24:19;11.40;99.90
19397;DHT22;9834;48.076;11.878;2023-05-10T06:26:47;11.30;99.90
19397;DHT22;9834;48.076;11.878;2023-05-10T06:29:15;11.30;99.90
19397;DHT22;9834;48.076;11.878;2023-05-10T06:31:43;11.30;99.90
19397;DHT22;9834;48.076;11.878;2023-05-10T06:34:10;11.30;99.90
19397;DHT22;9834;48.076;11.878;2023-05-10T06:36:38;11.40;99.90
19397;DHT22;9834;48.076;11.878;2023-05-10T06:39:06;11.50;99.90
19397;DHT22;9834;48.076;11.878;2023-05-10T06:41:34;11.60;99.90
19397;DHT22;9834;48.076;11.878;2023-05-10T06:44:02;11.60;99.90
19397;DHT22;9834;48.076;11.878;2023-05-10T06:46:29;11.70;99.90
19397;DHT22;9834;48.076;11.878;2023-05-10T06:48:56;11.80;99.90
19397;DHT22;9834;48.076;11.878;2023-05-10T06:51:24;11.90;99.90
19397;DHT22;9834;48.076;11.878;2023-05-10T06:53:53;11.90;99.90
19397;DHT22;9834;48.076;11.878;2023-05-10T06:56:20;12.00;99.90
19397;DHT22;9834;48.076;11.878;2023-05-10T06:58:48;12.10;99.90
19397;DHT22;9834;48.076;11.878;2023-05-10T07:01:15;12.10;99.90
19397;DHT22;9834;48.076;11.878;2023-05-10T07:03:43;12.20;99.90
19397;DHT22;9834;48.076;11.878;2023-05-10T07:06:10;12.20;99.90
19397;DHT22;9834;48.076;11.878;2023-05-10T07:08:38;12.40;99.90
19397;DHT22;9834;48.076;11.878;2023-05-10T07:11:07;12.70;99.90
19397;DHT22;9834;48.076;11.878;2023-05-10T07:13:34;12.80;99.90
19397;DHT22;9834;48.076;11.878;2023-05-10T07:16:02;12.80;99.90
19397;DHT22;9834;48.076;11.878;2023-05-10T07:18:30;13.00;99.90
19397;DHT22;9834;48.076;11.878;2023-05-10T07:20:57;13.20;99.90
19397;DHT22;9834;48.076;11.878;2023-05-10T07:23:25;13.20;99.90
19397;DHT22;9834;48.076;11.878;2023-05-10T07:25:52;13.30;99.90
19397;DHT22;9834;48.076;11.878;2023-05-10T07:28:21;13.30;99.90
19397;DHT22;9834;48.076;11.878;2023-05-10T07:30:49;13.50;99.90
19397;DHT22;9834;48.076;11.878;2023-05-10T07:33:16;13.60;99.90
19397;DHT22;9834;48.076;11.878;2023-05-10T07:35:43;13.50;99.90
19397;DHT22;9834;48.076;11.878;2023-05-10T07:38:11;13.50;99.90
19397;DHT22;9834;48.076;11.878;2023-05-10T07:40:39;13.50;99.90
19397;DHT22;9834;48.076;11.878;2023-05-10T07:43:06;13.60;99.90
19397;DHT22;9834;48.076;11.878;2023-05-10T07:45:35;14.00;99.90
19397;DHT22;9834;48.076;11.878;2023-05-10T07:48:03;14.00;99.90
19397;DHT22;9834;48.076;11.878;2023-05-10T07:50:30;14.00;99.90
19397;DHT22;9834;48.076;11.878;2023-05-10T07:52:58;13.70;99.90
19397;DHT22;9834;48.076;11.878;2023-05-10T07:55:25;13.60;99.90
19397;DHT22;9834;48.076;11.878;2023-05-10T07:57:53;13.40;99.90
19397;DHT22;9834;48.076;11.878;2023-05-10T08:00:20;13.30;99.90
19397;DHT22;9834;48.076;11.878;2023-05-10T08:02:49;13.30;99.90
19397;DHT22;9834;48.076;11.878;2023-05-10T08:05:17;13.40;99.90
19397;DHT22;9834;48.076;11.878;2023-05-10T08:07:44;13.60;99.90
19397;DHT22;9834;48.076;11.878;2023-05-10T08:10:12;13.80;99.90
19397;DHT22;9834;48.076;11.878;2023-05-10T08:12:40;14.00;99.90
19397;DHT22;9834;48.076;11.878;2023-05-10T08:15:09;14.20;99.90
19397;DHT22;9834;48.076;11.878;2023-05-10T08:17:36;14.30;99.90
19397;DHT22;9834;48.076;11.878;2023-05-10T08:20:06;14.30;99.90
19397;DHT22;9834;48.076;11.878;2023-05-10T08:22:34;14.40;99.90
19397;DHT22;9834;48.076;11.878;2023-05-10T08:25:01;14.30;99.90
19397;DHT22;9834;48.076;11.878;2023-05-10T08:27:29;14.20;99.90
19397;DHT22;9834;48.076;11.878;2023-05-10T08:29:56;13.90;99.90
19397;DHT22;9834;48.076;11.878;2023-05-10T08:32:24;13.60;99.90
19397;DHT22;9834;48.076;11.878;2023-05-10T08:34:51;13.20;99.90
19397;DHT22;9834;48.076;11.878;2023-05-10T08:37:20;13.10;99.90
19397;DHT22;9834;48.076;11.878;2023-05-10T08:39:47;13.20;99.90
19397;DHT22;9834;48.076;11.878;2023-05-10T08:42:19;13.30;99.90
19397;DHT22;9834;48.076;11.878;2023-05-10T08:44:48;13.30;99.90
19397;DHT22;9834;48.076;11.878;2023-05-10T08:47:17;13.30;99.90
19397;DHT22;9834;48.076;11.878;2023-05-10T08:49:47;13.30;99.90
19397;DHT22;9834;48.076;11.878;2023-05-10T08:52:15;13.40;99.90
19397;DHT22;9834;48.076;11.878;2023-05-10T08:54:44;13.50;99.90
19397;DHT22;9834;48.076;11.878;2023-05-10T08:57:12;13.70;99.90
19397;DHT22;9834;48.076;11.878;2023-05-10T08:59:39;13.90;99.90
19397;DHT22;9834;48.076;11.878;2023-05-10T09:02:10;14.30;99.90
19397;DHT22;9834;48.076;11.878;2023-05-10T09:04:43;14.80;99.90
19397;DHT22;9834;48.076;11.878;2023-05-10T09:07:14;15.00;99.90
19397;DHT22;9834;48.076;11.878;2023-05-10T09:09:44;15.00;99.90
19397;DHT22;9834;48.076;11.878;2023-05-10T09:12:13;14.80;99.90
19397;DHT22;9834;48.076;11.878;2023-05-10T09:14:42;14.80;99.90
19397;DHT22;9834;48.076;11.878;2023-05-10T09:17:11;15.00;99.90
19397;DHT22;9834;48.076;11.878;2023-05-10T09:19:38;15.00;99.90
19397;DHT22;9834;48.076;11.878;2023-05-10T09:22:07;14.80;99.90
19397;DHT22;9834;48.076;11.878;2023-05-10T09:24:35;14.70;99.90
19397;DHT22;9834;48.076;11.878;2023-05-10T09:27:09;14.90;99.90
19397;DHT22;9834;48.076;11.878;2023-05-10T09:29:41;14.70;99.90
19397;DHT22;9834;48.076;11.878;2023-05-10T09:32:08;14.20;99.90
19397;DHT22;9834;48.076;11.878;2023-05-10T09:34:36;14.10;99.90
19397;DHT22;9834;48.076;11.878;2023-05-10T09:37:06;14.10;99.90
19397;DHT22;9834;48.076;11.878;2023-05-10T09:39:35;14.40;99.90
19397;DHT22;9834;48.076;11.878;2023-05-10T09:42:04;14.50;99.90
19397;DHT22;9834;48.076;11.878;2023-05-10T09:44:33;14.70;99.90
19397;DHT22;9834;48.076;11.878;2023-05-10T09:47:01;14.80;99.90
19397;DHT22;9834;48.076;11.878;2023-05-10T09:49:29;14.90;99.90
19397;DHT22;9834;48.076;11.878;2023-05-10T09:52:04;15.00;99.90
19397;DHT22;9834;48.076;11.878;2023-05-10T09:54:32;15.30;99.90
19397;DHT22;9834;48.076;11.878;2023-05-10T09:57:00;15.60;99.90
19397;DHT22;9834;48.076;11.878;2023-05-10T09:59:28;15.70;99.90
19397;DHT22;9834;48.076;11.878;2023-05-10T10:01:59;15.80;99.90
19397;DHT22;9834;48.076;11.878;2023-05-10T10:04:27;16.20;99.90
19397;DHT22;9834;48.076;11.878;2023-05-10T10:07:01;16.80;99.90
19397;DHT22;9834;48.076;11.878;2023-05-10T10:09:29;17.40;99.90
19397;DHT22;9834;48.076;11.878;2023-05-10T10:11:57;17.80;99.90
19397;DHT22;9834;48.076;11.878;2023-05-10T10:14:25;18.00;99.90
19397;DHT22;9834;48.076;11.878;2023-05-10T10:16:53;17.90;99.90
19397;DHT22;9834;48.076;11.878;2023-05-10T10:19:22;17.50;99.90
19397;DHT22;9834;48.076;11.878;2023-05-10T10:21:50;17.10;99.90
19397;DHT22;9834;48.076;11.878;2023-05-10T10:24:18;15.90;99.90
19397;DHT22;9834;48.076;11.878;2023-05-10T10:26:45;14.70;99.90
19397;DHT22;9834;48.076;11.878;2023-05-10T10:29:21;14.00;99.90
19397;DHT22;9834;48.076;11.878;2023-05-10T10:31:55;13.70;99.90
19397;DHT22;9834;48.076;11.878;2023-05-10T10:34:28;13.80;99.90
19397;DHT22;9834;48.076;11.878;2023-05-10T10:36:56;14.00;99.90
19397;DHT22;9834;48.076;11.878;2023-05-10T10:39:24;14.20;99.90
19397;DHT22;9834;48.076;11.878;2023-05-10T10:41:53;14.60;99.90
19397;DHT22;9834;48.076;11.878;2023-05-10T10:44:37;14.90;99.90
19397;DHT22;9834;48.076;11.878;2023-05-10T10:47:10;14.90;99.90
19397;DHT22;9834;48.076;11.878;2023-05-10T10:50:02;15.20;99.90
19397;DHT22;9834;48.076;11.878;2023-05-10T10:52:32;15.50;99.90
19397;DHT22;9834;48.076;11.878;2023-05-10T10:55:02;15.70;99.90
19397;DHT22;9834;48.076;11.878;2023-05-10T10:57:32;16.20;99.90
19397;DHT22;9834;48.076;11.878;2023-05-10T11:00:21;16.80;99.90
19397;DHT22;9834;48.076;11.878;2023-05-10T11:02:50;17.10;99.90
19397;DHT22;9834;48.076;11.878;2023-05-10T11:05:53;17.10;99.90
19397;DHT22;9834;48.076;11.878;2023-05-10T11:08:29;17.30;99.90
19397;DHT22;9834;48.076;11.878;2023-05-10T11:11:05;17.20;99.90
19397;DHT22;9834;48.076;11.878;2023-05-10T11:13:37;17.20;99.90
19397;DHT22;9834;48.076;11.878;2023-05-10T11:16:16;17.30;99.90
19397;DHT22;9834;48.076;11.878;2023-05-10T11:19:09;17.50;99.90
19397;DHT22;9834;48.076;11.878;2023-05-10T11:21:46;17.90;99.90
19397;DHT22;9834;48.076;11.878;2023-05-10T11:24:15;18.00;99.90
19397;DHT22;9834;48.076;11.878;2023-05-10T11:26:43;17.80;99.90
19397;DHT22;9834;48.076;11.878;2023-05-10T11:29:12;17.60;99.90
19397;DHT22;9834;48.076;11.878;2023-05-10T11:31:43;17.20;99.90
19397;DHT22;9834;48.076;11.878;2023-05-10T11:34:22;16.90;99.90
19397;DHT22;9834;48.076;11.878;2023-05-10T11:36:53;16.50;99.90
19397;DHT22;9834;48.076;11.878;2023-05-10T11:39:20;16.20;99.90
19397;DHT22;9834;48.076;11.878;2023-05-10T11:41:49;15.90;99.90
19397;DHT22;9834;48.076;11.878;2023-05-10T11:44:16;15.70;99.90
19397;DHT22;9834;48.076;11.878;2023-05-10T11:46:46;15.80;99.90
19397;DHT22;9834;48.076;11.878;2023-05-10T11:49:13;15.70;99.90
19397;DHT22;9834;48.076;11.878;2023-05-10T11:51:40;15.60;99.90
19397;DHT22;9834;48.076;11.878;2023-05-10T11:54:10;15.50;99.90
19397;DHT22;9834;48.076;11.878;2023-05-10T11:56:38;15.40;99.90
19397;DHT22;9834;48.076;11.878;2023-05-10T11:59:06;15.10;99.90
19397;DHT22;9834;48.076;11.878;2023-05-10T12:01:34;14.60;99.90
19397;DHT22;9834;48.076;11.878;2023-05-10T12:04:02;14.20;99.90
19397;DHT22;9834;48.076;11.878;2023-05-10T12:06:30;14.00;99.90
19397;DHT22;9834;48.076;11.878;2023-05-10T12:08:58;13.90;99.90
19397;DHT22;9834;48.076;11.878;2023-05-10T12:11:28;13.70;99.90
19397;DHT22;9834;48.076;11.878;2023-05-10T12:13:56;13.60;99.90
19397;DHT22;9834;48.076;11.878;2023-05-10T12:16:24;13.50;99.90
19397;DHT22;9834;48.076;11.878;2023-05-10T12:18:52;13.20;99.90
19397;DHT22;9834;48.076;11.878;2023-05-10T12:21:21;12.80;99.90
19397;DHT22;9834;48.076;11.878;2023-05-10T12:23:50;12.40;99.90
19397;DHT22;9834;48.076;11.878;2023-05-10T12:26:18;12.20;99.90
19397;DHT22;9834;48.076;11.878;2023-05-10T12:28:49;12.00;99.90
19397;DHT22;9834;48.076;11.878;2023-05-10T12:31:17;11.80;99.90
19397;DHT22;9834;48.076;11.878;2023-05-10T12:33:45;11.50;99.90
19397;DHT22;9834;48.076;11.878;2023-05-10T12:36:16;11.40;99.90
19397;DHT22;9834;48.076;11.878;2023-05-10T12:38:45;11.20;99.90
19397;DHT22;9834;48.076;11.878;2023-05-10T12:41:15;11.20;99.90
19397;DHT22;9834;48.076;11.878;2023-05-10T12:43:44;11.20;99.90
19397;DHT22;9834;48.076;11.878;2023-05-10T12:46:15;11.20;99.90
19397;DHT22;9834;48.076;11.878;2023-05-10T12:48:45;11.30;99.90
19397;DHT22;9834;48.076;11.878;2023-05-10T12:51:13;11.30;99.90
19397;DHT22;9834;48.076;11.878;2023-05-10T12:53:42;11.40;99.90
19397;DHT22;9834;48.076;11.878;2023-05-10T12:56:11;11.50;99.90
19397;DHT22;9834;48.076;11.878;2023-05-10T12:58:38;11.50;99.90
19397;DHT22;9834;48.076;11.878;2023-05-10T13:01:08;11.50;99.90
19397;DHT22;9834;48.076;11.878;2023-05-10T13:03:38;11.60;99.90
19397;DHT22;9834;48.076;11.878;2023-05-10T13:06:06;11.60;99.90
19397;DHT22;9834;48.076;11.878;2023-05-10T13:08:33;11.60;99.90
19397;DHT22;9834;48.076;11.878;2023-05-10T13:11:00;11.60;99.90
19397;DHT22;9834;48.076;11.878;2023-05-10T13:13:27;11.60;99.90
19397;DHT22;9834;48.076;11.878;2023-05-10T13:15:54;11.60;99.90
19397;DHT22;9834;48.076;11.878;2023-05-10T13:18:21;11.70;99.90
19397;DHT22;9834;48.076;11.878;2023-05-10T13:20:50;11.60;99.90
19397;DHT22;9834;48.076;11.878;2023-05-10T13:23:17;11.80;99.90
19397;DHT22;9834;48.076;11.878;2023-05-10T13:25:45;11.90;99.90
19397;DHT22;9834;48.076;11.878;2023-05-10T13:28:12;11.90;99.90
19397;DHT22;9834;48.076;11.878;2023-05-10T13:30:40;11.90;99.90
19397;DHT22;9834;48.076;11.878;2023-05-10T13:33:07;11.90;99.90
19397;DHT22;9834;48.076;11.878;2023-05-10T13:35:34;11.90;99.90
19397;DHT22;9834;48.076;11.878;2023-05-10T13:38:02;12.10;99.90
19397;DHT22;9834;48.076;11.878;2023-05-10T13:40:29;12.00;99.90
19397;DHT22;9834;48.076;11.878;2023-05-10T13:42:56;12.00;99.90
19397;DHT22;9834;48.076;11.878;2023-05-10T13:45:23;12.00;99.90
19397;DHT22;9834;48.076;11.878;2023-05-10T13:47:50;12.00;99.90
19397;DHT22;9834;48.076;11.878;2023-05-10T13:50:17;12.00;99.90
19397;DHT22;9834;48.076;11.878;2023-05-10T13:52:44;12.10;99.90
19397;DHT22;9834;48.076;11.878;2023-05-10T13:55:13;12.20;99.90
19397;DHT22;9834;48.076;11.878;2023-05-10T13:57:40;12.20;99.90
19397;DHT22;9834;48.076;11.878;2023-05-10T14:00:09;12.30;99.90
19397;DHT22;9834;48.076;11.878;2023-05-10T14:02:36;12.40;99.90
19397;DHT22;9834;48.076;11.878;2023-05-10T14:05:04;12.50;99.90
19397;DHT22;9834;48.076;11.878;2023-05-10T14:07:31;12.50;99.90
19397;DHT22;9834;48.076;11.878;2023-05-10T14:09:58;12.50;99.90
19397;DHT22;9834;48.076;11.878;2023-05-10T14:12:27;12.60;99.90
19397;DHT22;9834;48.076;11.878;2023-05-10T14:14:54;12.70;99.90
19397;DHT22;9834;48.076;11.878;2023-05-10T14:17:21;12.60;99.90
19397;DHT22;9834;48.076;11.878;2023-05-10T14:19:48;12.60;99.90
19397;DHT22;9834;48.076;11.878;2023-05-10T14:22:15;12.70;99.90
19397;DHT22;9834;48.076;11.878;2023-05-10T14:24:42;12.60;99.90
19397;DHT22;9834;48.076;11.878;2023-05-10T14:27:12;12.60;99.90
19397;DHT22;9834;48.076;11.878;2023-05-10T14:29:40;12.50;99.90
19397;DHT22;9834;48.076;11.878;2023-05-10T14:32:07;12.40;99.90
19397;DHT22;9834;48.076;11.878;2023-05-10T14:34:34;12.50;99.90
19397;DHT22;9834;48.076;11.878;2023-05-10T14:37:01;12.70;99.90
19397;DHT22;9834;48.076;11.878;2023-05-10T14:39:28;12.70;99.90
19397;DHT22;9834;48.076;11.878;2023-05-10T14:41:56;12.90;99.90
19397;DHT22;9834;48.076;11.878;2023-05-10T14:44:24;12.80;99.90
19397;DHT22;9834;48.076;11.878;2023-05-10T14:46:53;12.70;99.90
19397;DHT22;9834;48.076;11.878;2023-05-10T14:49:21;12.70;99.90
19397;DHT22;9834;48.076;11.878;2023-05-10T14:51:51;12.50;99.90
19397;DHT22;9834;48.076;11.878;2023-05-10T14:54:19;12.40;99.90
19397;DHT22;9834;48.076;11.878;2023-05-10T14:56:47;12.50;99.90
19397;DHT22;9834;48.076;11.878;2023-05-10T14:59:15;12.50;99.90
19397;DHT22;9834;48.076;11.878;2023-05-10T15:01:43;12.50;99.90
19397;DHT22;9834;48.076;11.878;2023-05-10T15:04:11;12.40;99.90
19397;DHT22;9834;48.076;11.878;2023-05-10T15:06:41;12.30;99.90
19397;DHT22;9834;48.076;11.878;2023-05-10T15:09:09;12.30;99.90
19397;DHT22;9834;48.076;11.878;2023-05-10T15:11:36;12.40;99.90
19397;DHT22;9834;48.076;11.878;2023-05-10T15:14:03;12.30;99.90
19397;DHT22;9834;48.076;11.878;2023-05-10T15:16:31;12.30;99.90
19397;DHT22;9834;48.076;11.878;2023-05-10T15:18:59;12.30;99.90
19397;DHT22;9834;48.076;11.878;2023-05-10T15:21:28;12.30;99.90
19397;DHT22;9834;48.076;11.878;2023-05-10T15:24:00;12.30;99.90
19397;DHT22;9834;48.076;11.878;2023-05-10T15:26:28;12.30;99.90
19397;DHT22;9834;48.076;11.878;2023-05-10T15:28:55;12.30;99.90
19397;DHT22;9834;48.076;11.878;2023-05-10T15:31:23;12.30;99.90
19397;DHT22;9834;48.076;11.878;2023-05-10T15:33:50;12.20;99.90
19397;DHT22;9834;48.076;11.878;2023-05-10T15:36:18;12.00;99.90
19397;DHT22;9834;48.076;11.878;2023-05-10T15:38:47;11.90;99.90
19397;DHT22;9834;48.076;11.878;2023-05-10T15:41:14;11.80;99.90
19397;DHT22;9834;48.076;11.878;2023-05-10T15:43:41;11.70;99.90
19397;DHT22;9834;48.076;11.878;2023-05-10T15:46:08;11.60;99.90
19397;DHT22;9834;48.076;11.878;2023-05-10T15:48:36;11.60;99.90
19397;DHT22;9834;48.076;11.878;2023-05-10T15:51:05;11.60;99.90